createdAt,value
2018-11-14T00:01:30.149Z,6.07
2018-11-14T00:03:58.324Z,4.43
2018-11-14T00:06:26.593Z,11.27
2018-11-14T00:08:54.909Z,4.33
2018-11-14T00:11:23.117Z,4.30
2018-11-14T00:13:51.330Z,6.37
2018-11-14T00:16:19.532Z,5.83
2018-11-14T00:18:47.737Z,6.97
2018-11-14T00:21:15.920Z,8.63
2018-11-14T00:23:44.125Z,3.87
2018-11-14T00:26:12.360Z,7.83
2018-11-14T00:28:40.585Z,4.80
2018-11-14T00:31:08.785Z,4.60
2018-11-14T00:33:36.965Z,9.37
2018-11-14T00:36:05.341Z,7.60
2018-11-14T00:38:33.555Z,5.10
2018-11-14T00:41:01.748Z,8.27
2018-11-14T00:43:29.942Z,5.30
2018-11-14T00:45:58.099Z,7.27
2018-11-14T00:48:26.301Z,7.73
2018-11-14T00:50:54.465Z,7.40
2018-11-14T00:53:22.626Z,10.93
2018-11-14T00:55:50.805Z,11.73
2018-11-14T00:58:18.973Z,6.27
2018-11-14T01:00:47.150Z,4.47
2018-11-14T01:03:15.325Z,6.27
2018-11-14T01:05:43.471Z,8.07
2018-11-14T01:08:11.649Z,9.10
2018-11-14T01:10:39.823Z,10.53
2018-11-14T01:13:08.099Z,8.77
2018-11-14T01:15:36.199Z,8.90
2018-11-14T01:18:04.787Z,6.40
2018-11-14T01:20:32.625Z,6.73
2018-11-14T01:23:00.804Z,5.17
2018-11-14T01:25:29.014Z,8.53
2018-11-14T01:27:57.370Z,10.33
2018-11-14T01:30:25.423Z,6.23
2018-11-14T01:32:54.335Z,6.13
2018-11-14T01:35:22.680Z,6.13
2018-11-14T01:37:50.875Z,7.00
2018-11-14T01:40:22.017Z,6.80
2018-11-14T01:42:51.569Z,7.70
2018-11-14T01:45:19.823Z,5.40
2018-11-14T01:47:48.126Z,7.50
2018-11-14T01:50:16.341Z,7.43
2018-11-14T01:52:44.625Z,8.47
2018-11-14T01:55:14.373Z,7.47
2018-11-14T01:57:42.544Z,8.87
2018-11-14T02:00:12.220Z,9.93
2018-11-14T02:02:40.754Z,6.17
2018-11-14T02:05:09.514Z,6.77
2018-11-14T02:07:37.689Z,7.83
2018-11-14T02:10:08.095Z,6.17
2018-11-14T02:12:36.832Z,4.80
2018-11-14T02:15:06.267Z,5.07
2018-11-14T02:17:34.448Z,5.37
2018-11-14T02:20:02.665Z,6.17
2018-11-14T02:22:30.827Z,6.23
2018-11-14T02:24:59.036Z,6.50
2018-11-14T02:27:27.192Z,7.17
2018-11-14T02:29:55.357Z,5.63
2018-11-14T02:32:23.655Z,5.47
2018-11-14T02:34:51.868Z,4.87
2018-11-14T02:37:19.989Z,7.43
2018-11-14T02:39:48.160Z,7.50
2018-11-14T02:42:16.322Z,10.97
2018-11-14T02:44:44.488Z,4.70
2018-11-14T02:47:12.686Z,5.87
2018-11-14T02:49:40.874Z,8.13
2018-11-14T02:52:09.046Z,5.77
2018-11-14T02:54:37.234Z,8.37
2018-11-14T02:57:05.562Z,5.50
2018-11-14T02:59:33.717Z,6.63
2018-11-14T03:02:01.929Z,10.57
2018-11-14T03:04:30.088Z,7.73
2018-11-14T03:06:58.310Z,3.77
2018-11-14T03:09:26.501Z,8.13
2018-11-14T03:11:54.671Z,8.93
2018-11-14T03:14:22.841Z,6.90
2018-11-14T03:16:51.046Z,6.07
2018-11-14T03:19:19.261Z,8.97
2018-11-14T03:21:47.543Z,9.00
2018-11-14T03:24:15.778Z,4.57
2018-11-14T03:26:44.010Z,5.93
2018-11-14T03:29:12.234Z,4.90
2018-11-14T03:31:40.501Z,5.57
2018-11-14T03:34:08.859Z,5.27
2018-11-14T03:36:37.162Z,9.53
2018-11-14T03:39:08.446Z,5.87
2018-11-14T03:41:36.813Z,6.83
2018-11-14T03:44:05.599Z,4.77
2018-11-14T03:46:33.867Z,7.30
2018-11-14T03:49:02.159Z,8.13
2018-11-14T03:51:30.358Z,6.97
2018-11-14T03:53:58.614Z,7.23
2018-11-14T03:56:26.878Z,6.43
2018-11-14T03:58:55.121Z,6.93
2018-11-14T04:01:23.358Z,7.70
2018-11-14T04:03:51.580Z,7.70
2018-11-14T04:06:19.813Z,6.67
2018-11-14T04:08:48.019Z,7.10
2018-11-14T04:11:16.254Z,5.93
2018-11-14T04:13:44.502Z,5.53
2018-11-14T04:16:12.715Z,8.33
2018-11-14T04:18:40.958Z,4.67
2018-11-14T04:21:09.238Z,7.53
2018-11-14T04:23:51.878Z,6.60
2018-11-14T04:26:20.085Z,5.97
2018-11-14T04:28:48.300Z,6.37
2018-11-14T04:31:16.684Z,4.37
2018-11-14T04:33:44.998Z,7.47
2018-11-14T04:36:13.190Z,4.27
2018-11-14T04:38:41.395Z,4.30
2018-11-14T04:41:09.598Z,8.40
2018-11-14T04:43:38.427Z,4.70
2018-11-14T04:46:06.692Z,4.90
2018-11-14T04:48:35.014Z,4.83
2018-11-14T04:51:03.189Z,4.93
2018-11-14T04:53:31.364Z,6.70
2018-11-14T04:55:59.593Z,5.97
2018-11-14T04:58:27.828Z,6.90
2018-11-14T05:00:56.142Z,9.33
2018-11-14T05:03:24.424Z,9.63
2018-11-14T05:05:52.712Z,5.67
2018-11-14T05:08:20.973Z,3.53
2018-11-14T05:10:49.169Z,9.50
2018-11-14T05:13:17.433Z,4.77
2018-11-14T05:15:45.697Z,7.13
2018-11-14T05:18:13.921Z,4.03
2018-11-14T05:20:42.192Z,8.30
2018-11-14T05:23:10.413Z,4.67
2018-11-14T05:25:38.597Z,7.27
2018-11-14T05:28:06.800Z,4.07
2018-11-14T05:30:35.047Z,5.37
2018-11-14T05:33:03.337Z,7.03
2018-11-14T05:35:31.526Z,8.47
2018-11-14T05:37:59.721Z,19.40
2018-11-14T05:40:27.948Z,7.13
2018-11-14T05:42:56.974Z,32.17
2018-11-14T05:45:26.186Z,8.73
2018-11-14T05:47:54.467Z,14.63
2018-11-14T05:50:23.315Z,9.73
2018-11-14T05:52:51.529Z,5.57
2018-11-14T05:55:19.852Z,9.57
2018-11-14T05:57:48.166Z,11.37
2018-11-14T06:00:36.122Z,16.23
2018-11-14T06:03:04.972Z,6.57
2018-11-14T06:05:33.173Z,3.80
2018-11-14T06:08:01.392Z,13.33
2018-11-14T06:10:29.714Z,4.43
2018-11-14T06:12:57.940Z,6.20
2018-11-14T06:15:26.177Z,4.70
2018-11-14T06:17:55.337Z,5.90
2018-11-14T06:20:23.588Z,11.93
2018-11-14T06:22:52.359Z,4.27
2018-11-14T06:25:27.213Z,6.93
2018-11-14T06:27:56.397Z,15.13
2018-11-14T06:30:24.875Z,8.07
2018-11-14T06:32:53.580Z,3.87
2018-11-14T06:35:22.060Z,4.33
2018-11-14T06:37:51.143Z,5.70
2018-11-14T06:40:19.493Z,2.97
2018-11-14T06:42:47.768Z,23.67
2018-11-14T06:45:17.214Z,7.77
2018-11-14T06:47:46.604Z,20.37
2018-11-14T06:50:15.317Z,6.93
2018-11-14T06:52:44.078Z,4.00
2018-11-14T06:55:13.584Z,4.07
2018-11-14T06:57:41.815Z,4.00
2018-11-14T07:00:13.713Z,4.10
2018-11-14T07:02:42.503Z,7.97
2018-11-14T07:05:12.611Z,3.93
2018-11-14T07:07:40.751Z,10.13
2018-11-14T07:10:10.606Z,5.50
2018-11-14T07:12:38.833Z,31.50
2018-11-14T07:15:09.115Z,17.33
2018-11-14T07:17:37.326Z,9.60
2018-11-14T07:20:09.405Z,4.97
2018-11-14T07:22:37.556Z,8.83
2018-11-14T07:25:05.888Z,8.53
2018-11-14T07:27:34.165Z,27.87
2018-11-14T07:30:02.437Z,24.20
2018-11-14T07:32:31.177Z,26.07
2018-11-14T07:34:59.342Z,29.67
2018-11-14T07:37:27.492Z,13.67
2018-11-14T07:39:55.679Z,31.97
2018-11-14T07:42:23.961Z,4.20
2018-11-14T07:44:52.214Z,41.27
2018-11-14T07:47:20.410Z,5.00
2018-11-14T07:49:48.606Z,11.37
2018-11-14T07:52:16.888Z,11.43
2018-11-14T07:54:45.170Z,4.87
2018-11-14T07:57:13.300Z,14.20
2018-11-14T07:59:41.512Z,6.90
2018-11-14T08:02:09.807Z,6.23
2018-11-14T08:04:37.985Z,6.07
2018-11-14T08:07:06.292Z,8.37
2018-11-14T08:09:34.489Z,41.47
2018-11-14T08:12:02.701Z,10.73
2018-11-14T08:14:30.886Z,10.50
2018-11-14T08:16:59.092Z,13.10
2018-11-14T08:19:27.284Z,15.40
2018-11-14T08:21:55.461Z,12.97
2018-11-14T08:24:23.651Z,40.70
2018-11-14T08:26:51.818Z,13.03
2018-11-14T08:29:19.985Z,10.23
2018-11-14T08:31:48.277Z,9.73
2018-11-14T08:34:16.513Z,9.63
2018-11-14T08:36:44.728Z,9.50
2018-11-14T08:39:12.953Z,10.00
2018-11-14T08:41:41.094Z,9.47
2018-11-14T08:44:09.271Z,9.27
2018-11-14T08:46:37.440Z,9.57
2018-11-14T08:49:05.711Z,9.67
2018-11-14T08:51:34.080Z,7.93
2018-11-14T08:54:02.354Z,7.83
2018-11-14T08:56:30.577Z,8.03
2018-11-14T08:58:58.756Z,9.10
2018-11-14T09:01:26.917Z,7.00
2018-11-14T09:03:55.144Z,10.70
2018-11-14T09:06:23.438Z,7.27
2018-11-14T09:08:51.522Z,8.20
2018-11-14T09:11:19.762Z,8.43
2018-11-14T09:13:47.917Z,8.80
2018-11-14T09:16:16.099Z,8.07
2018-11-14T09:18:44.294Z,8.80
2018-11-14T09:21:12.460Z,5.37
2018-11-14T09:23:40.637Z,8.53
2018-11-14T09:26:08.784Z,8.90
2018-11-14T09:28:36.993Z,8.60
2018-11-14T09:31:05.278Z,8.73
2018-11-14T09:33:33.477Z,8.53
2018-11-14T09:36:01.719Z,11.27
2018-11-14T09:38:29.953Z,7.27
2018-11-14T09:40:58.230Z,7.40
2018-11-14T09:43:26.324Z,11.87
2018-11-14T09:45:54.544Z,10.53
2018-11-14T09:48:22.723Z,9.27
2018-11-14T09:50:50.946Z,7.73
2018-11-14T09:53:19.170Z,8.13
2018-11-14T09:55:47.370Z,9.00
2018-11-14T09:58:15.555Z,4.73
2018-11-14T10:00:43.748Z,5.37
2018-11-14T10:03:14.524Z,9.67
2018-11-14T10:05:42.789Z,7.90
2018-11-14T10:08:11.027Z,5.10
2018-11-14T10:10:39.220Z,7.27
2018-11-14T10:13:07.529Z,12.17
2018-11-14T10:15:35.849Z,6.50
2018-11-14T10:18:03.974Z,8.50
2018-11-14T10:20:32.158Z,8.17
2018-11-14T10:23:00.542Z,6.37
2018-11-14T10:25:28.760Z,6.60
2018-11-14T10:27:56.971Z,7.10
2018-11-14T10:30:26.365Z,6.37
2018-11-14T10:32:54.694Z,5.80
2018-11-14T10:35:22.918Z,9.03
2018-11-14T10:37:51.126Z,4.57
2018-11-14T10:40:22.030Z,3.63
2018-11-14T10:42:50.288Z,6.80
2018-11-14T10:45:19.905Z,7.13
2018-11-14T10:47:48.085Z,5.63
2018-11-14T10:50:19.449Z,3.63
2018-11-14T10:52:47.609Z,6.30
2018-11-14T10:55:16.499Z,4.63
2018-11-14T10:57:44.689Z,4.60
2018-11-14T11:00:22.205Z,6.83
2018-11-14T11:02:55.816Z,4.27
2018-11-14T11:05:29.253Z,4.10
2018-11-14T11:08:02.930Z,5.70
2018-11-14T11:10:36.300Z,2.53
2018-11-14T11:13:10.384Z,5.20
2018-11-14T11:15:44.033Z,2.60
2018-11-14T11:18:13.993Z,8.03
2018-11-14T11:20:42.274Z,3.87
2018-11-14T11:23:10.470Z,4.33
2018-11-14T11:25:38.695Z,4.63
2018-11-14T11:28:06.982Z,3.80
2018-11-14T11:30:35.366Z,5.63
2018-11-14T11:33:04.032Z,4.90
2018-11-14T11:35:32.225Z,6.63
2018-11-14T11:38:00.479Z,6.40
2018-11-14T11:40:28.701Z,4.93
2018-11-14T11:42:56.882Z,6.00
2018-11-14T11:45:25.048Z,6.33
2018-11-14T11:47:53.216Z,5.73
2018-11-14T11:50:21.407Z,6.43
2018-11-14T11:52:49.582Z,4.13
2018-11-14T11:55:18.044Z,3.70
2018-11-14T11:57:46.234Z,5.13
2018-11-14T12:00:14.754Z,7.23
2018-11-14T12:02:43.680Z,4.93
2018-11-14T12:05:12.966Z,7.77
2018-11-14T12:07:41.845Z,4.70
2018-11-14T12:10:11.457Z,5.13
2018-11-14T12:12:39.772Z,7.17
2018-11-14T12:15:09.437Z,3.57
2018-11-14T12:17:38.120Z,5.87
2018-11-14T12:20:07.534Z,5.70
2018-11-14T12:22:35.882Z,5.83
2018-11-14T12:25:04.090Z,2.93
2018-11-14T12:27:32.363Z,3.23
2018-11-14T12:30:00.661Z,5.83
2018-11-14T12:32:28.721Z,6.87
2018-11-14T12:34:56.957Z,3.27
2018-11-14T12:37:25.106Z,4.83
2018-11-14T12:39:53.297Z,6.87
2018-11-14T12:42:21.474Z,9.77
2018-11-14T12:44:49.654Z,4.67
2018-11-14T12:47:17.824Z,4.27
2018-11-14T12:49:46.013Z,3.27
2018-11-14T12:52:14.193Z,7.13
2018-11-14T12:54:42.365Z,6.07
2018-11-14T12:57:10.548Z,6.73
2018-11-14T12:59:38.743Z,6.03
2018-11-14T13:02:06.877Z,6.73
2018-11-14T13:04:35.065Z,6.23
2018-11-14T13:07:03.335Z,4.90
2018-11-14T13:09:31.520Z,5.83
2018-11-14T13:11:59.728Z,8.80
2018-11-14T13:14:27.912Z,3.10
2018-11-14T13:16:56.118Z,4.63
2018-11-14T13:19:24.500Z,7.47
2018-11-14T13:21:52.781Z,5.10
2018-11-14T13:24:20.891Z,4.47
2018-11-14T13:26:49.030Z,3.57
2018-11-14T13:29:17.154Z,2.73
2018-11-14T13:31:45.313Z,4.97
2018-11-14T13:34:13.442Z,4.23
2018-11-14T13:36:41.566Z,4.50
2018-11-14T13:39:10.454Z,5.50
2018-11-14T13:41:38.586Z,9.03
2018-11-14T13:44:06.698Z,2.80
2018-11-14T13:46:34.842Z,6.07
2018-11-14T13:49:03.021Z,5.27
2018-11-14T13:51:31.135Z,7.93
2018-11-14T13:53:59.340Z,4.47
2018-11-14T13:56:27.476Z,4.93
2018-11-14T13:58:55.846Z,6.73
2018-11-14T14:01:24.171Z,3.87
2018-11-14T14:03:52.276Z,5.07
2018-11-14T14:06:20.398Z,7.27
2018-11-14T14:08:48.518Z,4.75
2018-11-14T14:11:16.667Z,5.03
2018-11-14T14:13:50.042Z,3.67
2018-11-14T14:16:18.292Z,3.35
2018-11-14T14:18:46.344Z,6.17
2018-11-14T14:21:14.435Z,4.90
2018-11-14T14:23:42.542Z,8.90
2018-11-14T14:26:10.655Z,4.47
2018-11-14T14:28:38.751Z,5.63
2018-11-14T14:31:06.873Z,8.13
2018-11-14T14:33:34.963Z,8.30
2018-11-14T14:36:03.074Z,6.67
2018-11-14T14:38:31.250Z,6.63
2018-11-14T14:40:59.347Z,6.43
2018-11-14T14:43:27.447Z,8.73
2018-11-14T14:45:55.551Z,7.97
2018-11-14T14:48:23.654Z,12.53
2018-11-14T14:50:51.751Z,10.70
2018-11-14T14:53:19.907Z,7.90
2018-11-14T14:55:48.003Z,6.70
2018-11-14T14:58:16.110Z,9.77
2018-11-14T15:00:44.223Z,9.33
2018-11-14T15:03:12.353Z,8.20
2018-11-14T15:05:40.450Z,9.03
2018-11-14T15:08:08.551Z,8.00
2018-11-14T15:10:36.675Z,7.40
2018-11-14T15:13:05.080Z,6.67
2018-11-14T15:15:33.206Z,8.30
2018-11-14T15:18:01.971Z,23.07
2018-11-14T15:20:30.056Z,7.27
2018-11-14T15:22:58.171Z,6.50
2018-11-14T15:25:26.279Z,11.07
2018-11-14T15:27:54.413Z,7.57
2018-11-14T15:30:24.831Z,6.70
2018-11-14T15:32:52.969Z,7.23
2018-11-14T15:35:21.080Z,6.80
2018-11-14T15:37:49.169Z,7.63
2018-11-14T15:40:18.340Z,5.97
2018-11-14T15:42:46.662Z,7.03
2018-11-14T15:45:22.546Z,9.20
2018-11-14T15:47:50.680Z,11.03
2018-11-14T15:50:23.184Z,12.87
2018-11-14T15:52:52.218Z,12.23
2018-11-14T15:55:20.674Z,12.80
2018-11-14T15:57:48.899Z,11.03
2018-11-14T16:00:18.575Z,12.27
2018-11-14T16:02:46.702Z,12.20
2018-11-14T16:05:17.001Z,13.73
2018-11-14T16:07:46.281Z,15.07
2018-11-14T16:10:15.600Z,15.00
2018-11-14T16:12:44.140Z,15.93
2018-11-14T16:15:13.569Z,15.37
2018-11-14T16:17:41.785Z,17.00
2018-11-14T16:20:11.822Z,13.03
2018-11-14T16:22:40.027Z,15.60
2018-11-14T16:25:10.612Z,12.70
2018-11-14T16:27:38.998Z,14.77
2018-11-14T16:30:09.925Z,52.43
2018-11-14T16:32:38.071Z,15.80
2018-11-14T16:35:06.227Z,12.73
2018-11-14T16:37:34.348Z,14.43
2018-11-14T16:40:02.484Z,12.43
2018-11-14T16:42:30.583Z,15.33
2018-11-14T16:44:58.700Z,16.60
2018-11-14T16:47:26.858Z,14.87
2018-11-14T16:49:55.037Z,41.70
2018-11-14T16:52:23.314Z,16.80
2018-11-14T16:54:51.450Z,14.03
2018-11-14T16:57:19.672Z,15.50
2018-11-14T16:59:47.813Z,14.10
2018-11-14T17:02:15.996Z,16.17
2018-11-14T17:04:44.123Z,17.20
2018-11-14T17:07:12.282Z,31.73
2018-11-14T17:09:40.420Z,29.00
2018-11-14T17:12:08.518Z,17.70
2018-11-14T17:14:36.647Z,19.13
2018-11-14T17:17:04.830Z,16.80
2018-11-14T17:19:32.922Z,15.37
2018-11-14T17:22:01.025Z,17.67
2018-11-14T17:24:29.169Z,16.93
2018-11-14T17:26:57.235Z,19.87
2018-11-14T17:29:25.329Z,17.53
2018-11-14T17:31:53.497Z,17.50
2018-11-14T17:34:21.617Z,17.87
2018-11-14T17:36:49.714Z,27.90
2018-11-14T17:39:17.879Z,18.87
2018-11-14T17:41:46.125Z,21.17
2018-11-14T17:44:14.134Z,18.40
2018-11-14T17:46:42.282Z,17.80
2018-11-14T17:49:10.411Z,16.43
2018-11-14T17:51:38.531Z,17.87
2018-11-14T17:54:06.680Z,18.13
2018-11-14T17:56:34.790Z,15.13
2018-11-14T17:59:02.966Z,15.20
2018-11-14T18:01:31.112Z,15.87
2018-11-14T18:03:59.259Z,17.10
2018-11-14T18:06:27.399Z,16.83
2018-11-14T18:08:55.667Z,15.17
2018-11-14T18:11:23.830Z,18.17
2018-11-14T18:13:51.944Z,17.40
2018-11-14T18:16:20.075Z,16.87
2018-11-14T18:18:48.220Z,21.60
2018-11-14T18:21:16.356Z,19.60
2018-11-14T18:23:44.509Z,19.03
2018-11-14T18:26:12.663Z,19.40
2018-11-14T18:28:40.785Z,18.70
2018-11-14T18:31:08.926Z,18.63
2018-11-14T18:33:37.096Z,16.97
2018-11-14T18:36:05.786Z,19.07
2018-11-14T18:38:33.875Z,17.27
2018-11-14T18:41:02.008Z,17.13
2018-11-14T18:43:30.097Z,18.30
2018-11-14T18:45:58.338Z,20.20
2018-11-14T18:48:26.438Z,20.87
2018-11-14T18:50:54.563Z,17.27
2018-11-14T18:53:22.690Z,18.27
2018-11-14T18:55:50.837Z,20.77
2018-11-14T18:58:18.980Z,20.37
2018-11-14T19:00:47.092Z,16.70
2018-11-14T19:03:15.256Z,18.10
2018-11-14T19:05:43.578Z,21.10
2018-11-14T19:08:11.785Z,14.73
2018-11-14T19:10:39.976Z,20.70
2018-11-14T19:13:08.071Z,16.67
2018-11-14T19:15:37.040Z,18.17
2018-11-14T19:18:05.378Z,19.43
2018-11-14T19:20:34.392Z,18.40
2018-11-14T19:23:03.302Z,19.63
2018-11-14T19:25:32.851Z,21.57
2018-11-14T19:28:01.343Z,17.40
2018-11-14T19:30:30.868Z,21.13
2018-11-14T19:32:59.733Z,21.60
2018-11-14T19:35:28.136Z,19.97
2018-11-14T19:37:56.807Z,21.87
2018-11-14T19:40:28.151Z,20.67
2018-11-14T19:42:57.614Z,26.53
2018-11-14T19:45:27.383Z,25.13
2018-11-14T19:47:55.908Z,31.07
2018-11-14T19:50:24.703Z,59.90
2018-11-14T19:52:53.076Z,59.60
2018-11-14T19:55:22.409Z,27.37
2018-11-14T19:57:51.754Z,26.63
2018-11-14T20:00:22.371Z,23.80
2018-11-14T20:02:50.475Z,25.17
2018-11-14T20:05:18.994Z,24.73
2018-11-14T20:07:47.130Z,25.20
2018-11-14T20:10:16.668Z,25.53
2018-11-14T20:12:45.041Z,24.93
2018-11-14T20:15:15.763Z,21.77
2018-11-14T20:17:44.574Z,28.30
2018-11-14T20:20:14.140Z,40.67
2018-11-14T20:22:42.884Z,29.37
2018-11-14T20:25:11.114Z,29.10
2018-11-14T20:27:39.691Z,29.60
2018-11-14T20:30:10.965Z,26.50
2018-11-14T20:32:39.347Z,20.03
2018-11-14T20:35:10.786Z,21.23
2018-11-14T20:37:39.027Z,20.77
2018-11-14T20:40:08.214Z,24.07
2018-11-14T20:42:36.629Z,19.67
2018-11-14T20:45:05.671Z,21.37
2018-11-14T20:47:33.781Z,19.27
2018-11-14T20:50:01.895Z,20.90
2018-11-14T20:52:30.015Z,19.60
2018-11-14T20:54:58.112Z,20.43
2018-11-14T20:57:26.212Z,19.77
2018-11-14T20:59:54.786Z,21.23
2018-11-14T21:02:22.907Z,24.60
2018-11-14T21:04:51.062Z,24.37
2018-11-14T21:07:19.163Z,82.53
2018-11-14T21:09:47.446Z,28.70
2018-11-14T21:12:15.470Z,21.63
2018-11-14T21:14:43.622Z,26.13
2018-11-14T21:17:11.699Z,19.43
2018-11-14T21:19:39.851Z,22.37
2018-11-14T21:22:11.583Z,22.27
2018-11-14T21:24:39.739Z,20.57
2018-11-14T21:27:08.033Z,23.63
2018-11-14T21:29:36.188Z,20.57
2018-11-14T21:32:04.364Z,19.47
2018-11-14T21:34:32.455Z,21.40
2018-11-14T21:37:00.662Z,19.40
2018-11-14T21:39:28.868Z,21.30
2018-11-14T21:41:56.955Z,21.77
2018-11-14T21:44:25.095Z,21.27
2018-11-14T21:46:53.275Z,18.43
2018-11-14T21:49:28.380Z,20.33
2018-11-14T21:51:57.459Z,20.53
2018-11-14T21:54:26.152Z,21.17
2018-11-14T21:56:54.674Z,20.30
2018-11-14T21:59:22.842Z,17.47
2018-11-14T22:01:50.991Z,16.80
2018-11-14T22:04:19.138Z,18.57
2018-11-14T22:06:47.261Z,15.83
2018-11-14T22:09:15.384Z,15.57
2018-11-14T22:11:43.482Z,14.73
2018-11-14T22:14:11.843Z,15.43
2018-11-14T22:16:39.938Z,14.90
2018-11-14T22:19:08.071Z,14.53
2018-11-14T22:21:36.178Z,13.77
2018-11-14T22:24:04.735Z,14.57
2018-11-14T22:26:33.306Z,15.90
2018-11-14T22:29:01.842Z,13.57
2018-11-14T22:31:30.086Z,14.70
2018-11-14T22:33:58.447Z,14.37
2018-11-14T22:36:26.601Z,14.00
2018-11-14T22:38:54.708Z,15.40
2018-11-14T22:41:22.831Z,15.07
2018-11-14T22:43:50.974Z,15.23
2018-11-14T22:46:19.127Z,16.53
2018-11-14T22:48:47.256Z,16.17
2018-11-14T22:51:15.399Z,13.73
2018-11-14T22:53:43.560Z,14.50
2018-11-14T22:56:11.688Z,15.80
2018-11-14T22:58:39.902Z,14.53
2018-11-14T23:01:08.059Z,15.60
2018-11-14T23:03:36.235Z,15.93
2018-11-14T23:06:04.434Z,16.33
2018-11-14T23:08:32.591Z,19.93
2018-11-14T23:11:00.730Z,16.00
2018-11-14T23:13:28.934Z,19.10
2018-11-14T23:15:57.115Z,16.30
2018-11-14T23:18:25.278Z,15.70
2018-11-14T23:20:53.543Z,19.90
2018-11-14T23:23:21.699Z,17.30
2018-11-14T23:25:49.803Z,23.13
2018-11-14T23:28:17.927Z,21.93
2018-11-14T23:30:46.065Z,18.90
2018-11-14T23:33:14.224Z,18.73
2018-11-14T23:35:42.337Z,16.97
2018-11-14T23:38:10.459Z,20.20
2018-11-14T23:40:38.631Z,18.60
2018-11-14T23:43:06.770Z,19.00
2018-11-14T23:45:34.926Z,19.97
2018-11-14T23:48:03.039Z,19.83
2018-11-14T23:50:32.360Z,19.73
2018-11-14T23:53:01.431Z,19.23
2018-11-14T23:55:30.318Z,19.03
2018-11-14T23:57:58.912Z,20.57
